sensor_id;sensor_type;location;lat;lon;timestamp;P1;durP1;ratioP1;P2;durP2;ratioP2
28629;SDS011;15817;42.130;24.762;2022-07-23T00:02:09;9.63;;;5.25;;
28629;SDS011;15817;42.130;24.762;2022-07-23T00:04:35;11.60;;;5.20;;
28629;SDS011;15817;42.130;24.762;2022-07-23T00:07:01;9.98;;;4.90;;
28629;SDS011;15817;42.130;24.762;2022-07-23T00:09:27;10.82;;;5.20;;
28629;SDS011;15817;42.130;24.762;2022-07-23T00:11:55;8.80;;;5.13;;
28629;SDS011;15817;42.130;24.762;2022-07-23T00:14:21;9.77;;;4.45;;
28629;SDS011;15817;42.130;24.762;2022-07-23T00:16:47;11.20;;;4.72;;
28629;SDS011;15817;42.130;24.762;2022-07-23T00:19:13;7.05;;;3.92;;
28629;SDS011;15817;42.130;24.762;2022-07-23T00:21:39;9.07;;;3.92;;
28629;SDS011;15817;42.130;24.762;2022-07-23T00:24:05;7.25;;;4.03;;
28629;SDS011;15817;42.130;24.762;2022-07-23T00:26:30;10.88;;;4.18;;
28629;SDS011;15817;42.130;24.762;2022-07-23T00:28:56;7.68;;;4.15;;
28629;SDS011;15817;42.130;24.762;2022-07-23T00:31:22;7.43;;;3.97;;
28629;SDS011;15817;42.130;24.762;2022-07-23T00:33:48;10.25;;;3.83;;
28629;SDS011;15817;42.130;24.762;2022-07-23T00:36:15;8.80;;;3.78;;
28629;SDS011;15817;42.130;24.762;2022-07-23T00:38:41;6.55;;;3.88;;
28629;SDS011;15817;42.130;24.762;2022-07-23T00:41:07;11.50;;;3.88;;
28629;SDS011;15817;42.130;24.762;2022-07-23T00:43:33;7.32;;;4.20;;
28629;SDS011;15817;42.130;24.762;2022-07-23T00:45:59;13.10;;;4.40;;
28629;SDS011;15817;42.130;24.762;2022-07-23T00:48:25;7.22;;;4.40;;
28629;SDS011;15817;42.130;24.762;2022-07-23T00:50:51;10.52;;;6.45;;
28629;SDS011;15817;42.130;24.762;2022-07-23T00:53:17;17.83;;;7.38;;
28629;SDS011;15817;42.130;24.762;2022-07-23T00:55:42;17.35;;;9.88;;
28629;SDS011;15817;42.130;24.762;2022-07-23T00:58:09;22.00;;;12.70;;
28629;SDS011;15817;42.130;24.762;2022-07-23T01:00:35;19.83;;;13.52;;
28629;SDS011;15817;42.130;24.762;2022-07-23T01:03:01;21.35;;;12.23;;
28629;SDS011;15817;42.130;24.762;2022-07-23T01:05:26;14.63;;;10.68;;
28629;SDS011;15817;42.130;24.762;2022-07-23T01:07:53;14.57;;;9.48;;
28629;SDS011;15817;42.130;24.762;2022-07-23T01:10:19;12.63;;;9.52;;
28629;SDS011;15817;42.130;24.762;2022-07-23T01:13:00;15.68;;;8.88;;
28629;SDS011;15817;42.130;24.762;2022-07-23T01:15:28;10.43;;;8.38;;
28629;SDS011;15817;42.130;24.762;2022-07-23T01:17:55;12.55;;;8.93;;
28629;SDS011;15817;42.130;24.762;2022-07-23T01:20:21;18.77;;;9.65;;
28629;SDS011;15817;42.130;24.762;2022-07-23T01:22:48;14.73;;;8.60;;
28629;SDS011;15817;42.130;24.762;2022-07-23T01:25:16;13.88;;;9.02;;
28629;SDS011;15817;42.130;24.762;2022-07-23T01:27:51;17.95;;;8.30;;
28629;SDS011;15817;42.130;24.762;2022-07-23T01:30:19;16.05;;;7.60;;
28629;SDS011;15817;42.130;24.762;2022-07-23T01:32:46;13.05;;;8.32;;
28629;SDS011;15817;42.130;24.762;2022-07-23T01:35:12;12.05;;;7.07;;
28629;SDS011;15817;42.130;24.762;2022-07-23T01:37:41;17.42;;;7.45;;
28629;SDS011;15817;42.130;24.762;2022-07-23T01:40:08;11.13;;;7.20;;
28629;SDS011;15817;42.130;24.762;2022-07-23T01:42:35;13.85;;;7.10;;
28629;SDS011;15817;42.130;24.762;2022-07-23T01:45:02;15.73;;;7.72;;
28629;SDS011;15817;42.130;24.762;2022-07-23T01:47:30;10.68;;;6.38;;
28629;SDS011;15817;42.130;24.762;2022-07-23T01:49:56;12.90;;;6.90;;
28629;SDS011;15817;42.130;24.762;2022-07-23T01:52:48;12.65;;;7.30;;
28629;SDS011;15817;42.130;24.762;2022-07-23T01:55:14;12.45;;;7.35;;
28629;SDS011;15817;42.130;24.762;2022-07-23T01:57:43;14.90;;;7.93;;
28629;SDS011;15817;42.130;24.762;2022-07-23T02:00:11;12.90;;;8.75;;
28629;SDS011;15817;42.130;24.762;2022-07-23T02:02:43;12.27;;;8.02;;
28629;SDS011;15817;42.130;24.762;2022-07-23T02:05:09;16.65;;;8.70;;
28629;SDS011;15817;42.130;24.762;2022-07-23T02:07:36;17.00;;;8.95;;
28629;SDS011;15817;42.130;24.762;2022-07-23T02:10:02;14.90;;;8.27;;
28629;SDS011;15817;42.130;24.762;2022-07-23T02:12:28;22.00;;;9.80;;
28629;SDS011;15817;42.130;24.762;2022-07-23T02:14:54;14.73;;;9.48;;
28629;SDS011;15817;42.130;24.762;2022-07-23T02:17:20;18.67;;;10.07;;
28629;SDS011;15817;42.130;24.762;2022-07-23T02:19:46;16.77;;;9.80;;
28629;SDS011;15817;42.130;24.762;2022-07-23T02:22:14;14.23;;;9.43;;
28629;SDS011;15817;42.130;24.762;2022-07-23T02:24:40;20.77;;;10.73;;
28629;SDS011;15817;42.130;24.762;2022-07-23T02:27:05;17.27;;;10.52;;
28629;SDS011;15817;42.130;24.762;2022-07-23T02:29:32;17.00;;;10.80;;
28629;SDS011;15817;42.130;24.762;2022-07-23T02:31:58;18.88;;;9.57;;
28629;SDS011;15817;42.130;24.762;2022-07-23T02:34:24;21.98;;;10.05;;
28629;SDS011;15817;42.130;24.762;2022-07-23T02:36:50;15.18;;;8.45;;
28629;SDS011;15817;42.130;24.762;2022-07-23T02:39:16;20.05;;;9.38;;
28629;SDS011;15817;42.130;24.762;2022-07-23T02:41:42;18.48;;;8.35;;
28629;SDS011;15817;42.130;24.762;2022-07-23T02:44:08;17.83;;;8.55;;
28629;SDS011;15817;42.130;24.762;2022-07-23T02:46:35;20.23;;;8.85;;
28629;SDS011;15817;42.130;24.762;2022-07-23T02:49:01;21.90;;;7.70;;
28629;SDS011;15817;42.130;24.762;2022-07-23T02:51:30;21.73;;;8.98;;
28629;SDS011;15817;42.130;24.762;2022-07-23T02:54:02;16.77;;;8.57;;
28629;SDS011;15817;42.130;24.762;2022-07-23T02:56:28;14.98;;;8.00;;
28629;SDS011;15817;42.130;24.762;2022-07-23T02:58:56;16.27;;;8.50;;
28629;SDS011;15817;42.130;24.762;2022-07-23T03:01:21;15.15;;;7.80;;
28629;SDS011;15817;42.130;24.762;2022-07-23T03:03:47;16.30;;;8.95;;
28629;SDS011;15817;42.130;24.762;2022-07-23T03:06:13;21.02;;;7.55;;
28629;SDS011;15817;42.130;24.762;2022-07-23T03:08:39;14.73;;;7.43;;
28629;SDS011;15817;42.130;24.762;2022-07-23T03:11:05;25.15;;;7.65;;
28629;SDS011;15817;42.130;24.762;2022-07-23T03:13:37;19.58;;;8.20;;
28629;SDS011;15817;42.130;24.762;2022-07-23T03:16:03;13.43;;;7.47;;
28629;SDS011;15817;42.130;24.762;2022-07-23T03:18:29;17.00;;;8.07;;
28629;SDS011;15817;42.130;24.762;2022-07-23T03:20:55;13.25;;;7.07;;
28629;SDS011;15817;42.130;24.762;2022-07-23T03:23:21;13.52;;;7.03;;
28629;SDS011;15817;42.130;24.762;2022-07-23T03:25:47;15.38;;;6.50;;
28629;SDS011;15817;42.130;24.762;2022-07-23T03:28:16;15.63;;;6.60;;
28629;SDS011;15817;42.130;24.762;2022-07-23T03:30:47;12.93;;;5.72;;
28629;SDS011;15817;42.130;24.762;2022-07-23T03:33:14;13.25;;;6.50;;
28629;SDS011;15817;42.130;24.762;2022-07-23T03:35:45;20.05;;;6.40;;
28629;SDS011;15817;42.130;24.762;2022-07-23T03:38:20;14.88;;;6.10;;
28629;SDS011;15817;42.130;24.762;2022-07-23T03:40:46;18.08;;;6.85;;
28629;SDS011;15817;42.130;24.762;2022-07-23T03:43:11;16.90;;;6.20;;
28629;SDS011;15817;42.130;24.762;2022-07-23T03:45:37;11.10;;;5.72;;
28629;SDS011;15817;42.130;24.762;2022-07-23T03:48:03;11.02;;;6.20;;
28629;SDS011;15817;42.130;24.762;2022-07-23T03:50:32;9.93;;;6.07;;
28629;SDS011;15817;42.130;24.762;2022-07-23T03:52:59;13.95;;;6.22;;
28629;SDS011;15817;42.130;24.762;2022-07-23T03:55:25;11.05;;;6.10;;
28629;SDS011;15817;42.130;24.762;2022-07-23T03:57:51;15.25;;;6.63;;
28629;SDS011;15817;42.130;24.762;2022-07-23T04:00:17;15.02;;;7.07;;
28629;SDS011;15817;42.130;24.762;2022-07-23T04:02:45;12.18;;;5.90;;
28629;SDS011;15817;42.130;24.762;2022-07-23T04:05:11;14.13;;;6.32;;
28629;SDS011;15817;42.130;24.762;2022-07-23T04:07:39;9.57;;;5.28;;
28629;SDS011;15817;42.130;24.762;2022-07-23T04:10:05;12.00;;;5.82;;
28629;SDS011;15817;42.130;24.762;2022-07-23T04:12:35;13.32;;;6.10;;
28629;SDS011;15817;42.130;24.762;2022-07-23T04:15:02;15.40;;;5.70;;
28629;SDS011;15817;42.130;24.762;2022-07-23T04:17:29;12.38;;;6.28;;
28629;SDS011;15817;42.130;24.762;2022-07-23T04:19:54;16.92;;;7.07;;
28629;SDS011;15817;42.130;24.762;2022-07-23T04:22:23;8.85;;;6.13;;
28629;SDS011;15817;42.130;24.762;2022-07-23T04:24:52;7.70;;;5.53;;
28629;SDS011;15817;42.130;24.762;2022-07-23T04:27:20;11.15;;;6.00;;
28629;SDS011;15817;42.130;24.762;2022-07-23T04:29:46;9.00;;;5.95;;
28629;SDS011;15817;42.130;24.762;2022-07-23T04:32:13;10.05;;;6.32;;
28629;SDS011;15817;42.130;24.762;2022-07-23T04:34:39;9.15;;;5.68;;
28629;SDS011;15817;42.130;24.762;2022-07-23T04:37:06;13.23;;;6.47;;
28629;SDS011;15817;42.130;24.762;2022-07-23T04:39:35;10.90;;;5.85;;
28629;SDS011;15817;42.130;24.762;2022-07-23T04:42:01;11.23;;;6.60;;
28629;SDS011;15817;42.130;24.762;2022-07-23T04:44:29;9.55;;;5.68;;
28629;SDS011;15817;42.130;24.762;2022-07-23T04:46:55;13.50;;;6.22;;
28629;SDS011;15817;42.130;24.762;2022-07-23T04:49:23;18.33;;;6.75;;
28629;SDS011;15817;42.130;24.762;2022-07-23T04:51:49;9.85;;;6.68;;
28629;SDS011;15817;42.130;24.762;2022-07-23T04:54:14;9.52;;;6.40;;
28629;SDS011;15817;42.130;24.762;2022-07-23T04:56:43;13.23;;;6.82;;
28629;SDS011;15817;42.130;24.762;2022-07-23T04:59:09;11.57;;;7.00;;
28629;SDS011;15817;42.130;24.762;2022-07-23T05:01:38;10.70;;;6.28;;
28629;SDS011;15817;42.130;24.762;2022-07-23T05:04:17;14.25;;;6.72;;
28629;SDS011;15817;42.130;24.762;2022-07-23T05:06:45;15.60;;;6.35;;
28629;SDS011;15817;42.130;24.762;2022-07-23T05:09:24;19.08;;;6.85;;
28629;SDS011;15817;42.130;24.762;2022-07-23T05:11:50;10.90;;;6.38;;
28629;SDS011;15817;42.130;24.762;2022-07-23T05:14:22;14.55;;;6.57;;
28629;SDS011;15817;42.130;24.762;2022-07-23T05:16:48;15.68;;;7.30;;
28629;SDS011;15817;42.130;24.762;2022-07-23T05:19:24;13.40;;;7.15;;
28629;SDS011;15817;42.130;24.762;2022-07-23T05:21:53;15.90;;;7.30;;
28629;SDS011;15817;42.130;24.762;2022-07-23T05:24:22;12.55;;;6.85;;
28629;SDS011;15817;42.130;24.762;2022-07-23T05:26:49;12.05;;;6.38;;
28629;SDS011;15817;42.130;24.762;2022-07-23T05:29:15;10.90;;;6.28;;
28629;SDS011;15817;42.130;24.762;2022-07-23T05:31:41;13.93;;;6.50;;
28629;SDS011;15817;42.130;24.762;2022-07-23T05:34:27;17.88;;;6.90;;
28629;SDS011;15817;42.130;24.762;2022-07-23T05:36:53;16.50;;;6.38;;
28629;SDS011;15817;42.130;24.762;2022-07-23T05:39:19;10.73;;;6.43;;
28629;SDS011;15817;42.130;24.762;2022-07-23T05:41:46;17.15;;;7.95;;
28629;SDS011;15817;42.130;24.762;2022-07-23T05:44:22;18.00;;;7.13;;
28629;SDS011;15817;42.130;24.762;2022-07-23T05:46:50;14.70;;;6.93;;
28629;SDS011;15817;42.130;24.762;2022-07-23T05:49:27;36.53;;;8.10;;
28629;SDS011;15817;42.130;24.762;2022-07-23T05:52:18;303.52;;;31.05;;
28629;SDS011;15817;42.130;24.762;2022-07-23T05:55:04;52.10;;;10.68;;
28629;SDS011;15817;42.130;24.762;2022-07-23T05:57:31;20.65;;;6.78;;
28629;SDS011;15817;42.130;24.762;2022-07-23T06:03:18;20.92;;;7.85;;
28629;SDS011;15817;42.130;24.762;2022-07-23T06:05:52;14.23;;;7.40;;
28629;SDS011;15817;42.130;24.762;2022-07-23T06:08:18;13.85;;;7.35;;
28629;SDS011;15817;42.130;24.762;2022-07-23T06:11:07;14.88;;;7.65;;
28629;SDS011;15817;42.130;24.762;2022-07-23T06:14:06;10.43;;;7.15;;
28629;SDS011;15817;42.130;24.762;2022-07-23T06:16:57;16.17;;;7.32;;
28629;SDS011;15817;42.130;24.762;2022-07-23T06:19:28;21.92;;;7.57;;
28629;SDS011;15817;42.130;24.762;2022-07-23T06:21:54;19.38;;;7.20;;
28629;SDS011;15817;42.130;24.762;2022-07-23T06:24:23;14.68;;;7.53;;
28629;SDS011;15817;42.130;24.762;2022-07-23T06:26:49;10.45;;;6.57;;
28629;SDS011;15817;42.130;24.762;2022-07-23T06:29:15;12.82;;;6.75;;
28629;SDS011;15817;42.130;24.762;2022-07-23T06:31:41;19.77;;;7.35;;
28629;SDS011;15817;42.130;24.762;2022-07-23T06:34:13;14.48;;;7.53;;
28629;SDS011;15817;42.130;24.762;2022-07-23T06:36:42;20.08;;;6.78;;
28629;SDS011;15817;42.130;24.762;2022-07-23T06:39:07;12.05;;;5.95;;
28629;SDS011;15817;42.130;24.762;2022-07-23T06:41:39;9.00;;;6.07;;
28629;SDS011;15817;42.130;24.762;2022-07-23T06:44:05;16.52;;;5.93;;
28629;SDS011;15817;42.130;24.762;2022-07-23T06:46:33;12.52;;;6.10;;
28629;SDS011;15817;42.130;24.762;2022-07-23T06:48:59;14.85;;;6.10;;
28629;SDS011;15817;42.130;24.762;2022-07-23T06:51:30;15.57;;;5.95;;
28629;SDS011;15817;42.130;24.762;2022-07-23T06:53:56;17.23;;;6.10;;
28629;SDS011;15817;42.130;24.762;2022-07-23T06:56:22;15.60;;;5.32;;
28629;SDS011;15817;42.130;24.762;2022-07-23T07:02:04;11.90;;;5.35;;
28629;SDS011;15817;42.130;24.762;2022-07-23T07:04:35;8.88;;;4.60;;
28629;SDS011;15817;42.130;24.762;2022-07-23T07:07:02;7.90;;;4.78;;
28629;SDS011;15817;42.130;24.762;2022-07-23T07:09:28;15.68;;;5.22;;
28629;SDS011;15817;42.130;24.762;2022-07-23T07:11:54;15.95;;;4.57;;
28629;SDS011;15817;42.130;24.762;2022-07-23T07:14:20;13.07;;;5.05;;
28629;SDS011;15817;42.130;24.762;2022-07-23T07:16:46;8.80;;;4.72;;
28629;SDS011;15817;42.130;24.762;2022-07-23T07:19:12;17.65;;;5.18;;
28629;SDS011;15817;42.130;24.762;2022-07-23T07:21:38;9.27;;;5.22;;
28629;SDS011;15817;42.130;24.762;2022-07-23T07:24:04;11.00;;;5.55;;
28629;SDS011;15817;42.130;24.762;2022-07-23T07:26:33;9.90;;;5.28;;
28629;SDS011;15817;42.130;24.762;2022-07-23T07:28:59;16.30;;;4.93;;
28629;SDS011;15817;42.130;24.762;2022-07-23T07:31:25;13.48;;;4.95;;
28629;SDS011;15817;42.130;24.762;2022-07-23T07:33:51;10.32;;;5.38;;
28629;SDS011;15817;42.130;24.762;2022-07-23T07:36:18;7.72;;;5.45;;
28629;SDS011;15817;42.130;24.762;2022-07-23T07:38:44;7.93;;;5.05;;
28629;SDS011;15817;42.130;24.762;2022-07-23T07:41:10;14.13;;;5.38;;
28629;SDS011;15817;42.130;24.762;2022-07-23T07:43:36;8.93;;;4.63;;
28629;SDS011;15817;42.130;24.762;2022-07-23T07:46:05;13.93;;;5.68;;
28629;SDS011;15817;42.130;24.762;2022-07-23T07:48:36;8.93;;;4.78;;
28629;SDS011;15817;42.130;24.762;2022-07-23T07:51:04;14.45;;;4.97;;
28629;SDS011;15817;42.130;24.762;2022-07-23T07:53:31;13.93;;;4.68;;
28629;SDS011;15817;42.130;24.762;2022-07-23T07:55:58;10.48;;;5.15;;
28629;SDS011;15817;42.130;24.762;2022-07-23T07:58:24;13.60;;;5.15;;
28629;SDS011;15817;42.130;24.762;2022-07-23T08:00:50;10.60;;;5.10;;
28629;SDS011;15817;42.130;24.762;2022-07-23T08:03:16;18.00;;;5.50;;
28629;SDS011;15817;42.130;24.762;2022-07-23T08:05:42;10.13;;;4.88;;
28629;SDS011;15817;42.130;24.762;2022-07-23T08:08:08;12.25;;;4.30;;
28629;SDS011;15817;42.130;24.762;2022-07-23T08:10:40;14.05;;;4.80;;
28629;SDS011;15817;42.130;24.762;2022-07-23T08:13:10;16.02;;;4.95;;
28629;SDS011;15817;42.130;24.762;2022-07-23T08:15:41;15.30;;;5.40;;
28629;SDS011;15817;42.130;24.762;2022-07-23T08:18:08;8.35;;;4.30;;
28629;SDS011;15817;42.130;24.762;2022-07-23T08:20:34;11.65;;;4.53;;
28629;SDS011;15817;42.130;24.762;2022-07-23T08:23:02;8.02;;;4.68;;
28629;SDS011;15817;42.130;24.762;2022-07-23T08:25:37;13.13;;;5.95;;
28629;SDS011;15817;42.130;24.762;2022-07-23T08:28:05;11.13;;;6.47;;
28629;SDS011;15817;42.130;24.762;2022-07-23T08:30:34;14.05;;;4.78;;
28629;SDS011;15817;42.130;24.762;2022-07-23T08:33:02;12.32;;;5.35;;
28629;SDS011;15817;42.130;24.762;2022-07-23T08:35:42;10.18;;;4.68;;
28629;SDS011;15817;42.130;24.762;2022-07-23T08:38:12;12.45;;;4.57;;
28629;SDS011;15817;42.130;24.762;2022-07-23T08:40:40;10.45;;;4.80;;
28629;SDS011;15817;42.130;24.762;2022-07-23T08:43:15;13.35;;;5.30;;
28629;SDS011;15817;42.130;24.762;2022-07-23T08:45:49;13.35;;;7.50;;
28629;SDS011;15817;42.130;24.762;2022-07-23T08:48:22;13.27;;;4.55;;
28629;SDS011;15817;42.130;24.762;2022-07-23T08:50:55;16.92;;;4.75;;
28629;SDS011;15817;42.130;24.762;2022-07-23T08:53:25;13.65;;;4.93;;
28629;SDS011;15817;42.130;24.762;2022-07-23T08:55:53;18.35;;;8.68;;
28629;SDS011;15817;42.130;24.762;2022-07-23T08:58:21;9.77;;;4.95;;
28629;SDS011;15817;42.130;24.762;2022-07-23T09:00:51;8.57;;;4.65;;
28629;SDS011;15817;42.130;24.762;2022-07-23T09:03:33;10.88;;;4.15;;
28629;SDS011;15817;42.130;24.762;2022-07-23T09:06:04;5.47;;;3.65;;
28629;SDS011;15817;42.130;24.762;2022-07-23T09:08:36;7.20;;;3.92;;
28629;SDS011;15817;42.130;24.762;2022-07-23T09:11:10;9.73;;;4.70;;
28629;SDS011;15817;42.130;24.762;2022-07-23T09:16:10;12.73;;;5.18;;
28629;SDS011;15817;42.130;24.762;2022-07-23T09:18:43;9.30;;;4.50;;
28629;SDS011;15817;42.130;24.762;2022-07-23T09:21:18;15.00;;;4.80;;
28629;SDS011;15817;42.130;24.762;2022-07-23T09:23:58;8.25;;;4.00;;
28629;SDS011;15817;42.130;24.762;2022-07-23T09:26:42;8.27;;;4.85;;
28629;SDS011;15817;42.130;24.762;2022-07-23T09:31:42;9.15;;;5.07;;
28629;SDS011;15817;42.130;24.762;2022-07-23T09:34:14;13.55;;;3.83;;
28629;SDS011;15817;42.130;24.762;2022-07-23T09:36:47;9.10;;;4.10;;
28629;SDS011;15817;42.130;24.762;2022-07-23T09:39:16;7.68;;;3.90;;
28629;SDS011;15817;42.130;24.762;2022-07-23T09:41:55;10.38;;;4.35;;
28629;SDS011;15817;42.130;24.762;2022-07-23T09:44:23;15.88;;;4.10;;
28629;SDS011;15817;42.130;24.762;2022-07-23T09:46:50;14.32;;;6.63;;
28629;SDS011;15817;42.130;24.762;2022-07-23T09:49:22;14.73;;;5.57;;
28629;SDS011;15817;42.130;24.762;2022-07-23T09:51:50;12.05;;;4.03;;
28629;SDS011;15817;42.130;24.762;2022-07-23T09:56:57;14.82;;;5.05;;
28629;SDS011;15817;42.130;24.762;2022-07-23T09:59:34;16.17;;;5.00;;
28629;SDS011;15817;42.130;24.762;2022-07-23T10:02:25;6.45;;;3.85;;
28629;SDS011;15817;42.130;24.762;2022-07-23T10:05:13;7.85;;;3.78;;
28629;SDS011;15817;42.130;24.762;2022-07-23T10:08:03;12.98;;;3.50;;
28629;SDS011;15817;42.130;24.762;2022-07-23T10:10:51;12.02;;;4.15;;
28629;SDS011;15817;42.130;24.762;2022-07-23T10:13:31;9.75;;;3.72;;
28629;SDS011;15817;42.130;24.762;2022-07-23T10:16:16;11.98;;;3.72;;
28629;SDS011;15817;42.130;24.762;2022-07-23T10:18:47;13.48;;;5.50;;
28629;SDS011;15817;42.130;24.762;2022-07-23T10:21:25;11.73;;;3.65;;
28629;SDS011;15817;42.130;24.762;2022-07-23T10:30:38;8.77;;;4.15;;
28629;SDS011;15817;42.130;24.762;2022-07-23T10:36:36;7.40;;;3.63;;
28629;SDS011;15817;42.130;24.762;2022-07-23T10:39:23;11.40;;;4.00;;
28629;SDS011;15817;42.130;24.762;2022-07-23T10:42:06;9.35;;;3.88;;
28629;SDS011;15817;42.130;24.762;2022-07-23T10:44:39;13.00;;;4.20;;
28629;SDS011;15817;42.130;24.762;2022-07-23T10:47:07;10.50;;;4.07;;
28629;SDS011;15817;42.130;24.762;2022-07-23T10:58:03;10.02;;;3.95;;
28629;SDS011;15817;42.130;24.762;2022-07-23T11:00:31;9.63;;;4.13;;
28629;SDS011;15817;42.130;24.762;2022-07-23T11:03:02;10.05;;;3.30;;
28629;SDS011;15817;42.130;24.762;2022-07-23T11:05:53;7.68;;;3.25;;
28629;SDS011;15817;42.130;24.762;2022-07-23T11:08:22;8.57;;;3.80;;
28629;SDS011;15817;42.130;24.762;2022-07-23T11:10:49;11.20;;;3.63;;
28629;SDS011;15817;42.130;24.762;2022-07-23T11:35:21;12.05;;;4.07;;
28629;SDS011;15817;42.130;24.762;2022-07-23T11:40:55;12.18;;;3.85;;
28629;SDS011;15817;42.130;24.762;2022-07-23T11:46:09;10.68;;;3.65;;
28629;SDS011;15817;42.130;24.762;2022-07-23T11:48:46;8.80;;;3.55;;
28629;SDS011;15817;42.130;24.762;2022-07-23T11:51:34;13.60;;;4.05;;
28629;SDS011;15817;42.130;24.762;2022-07-23T11:54:11;13.00;;;3.85;;
28629;SDS011;15817;42.130;24.762;2022-07-23T11:56:54;17.60;;;4.57;;
28629;SDS011;15817;42.130;24.762;2022-07-23T11:59:27;10.20;;;3.38;;
28629;SDS011;15817;42.130;24.762;2022-07-23T12:02:04;12.80;;;4.20;;
28629;SDS011;15817;42.130;24.762;2022-07-23T12:04:58;9.63;;;4.18;;
28629;SDS011;15817;42.130;24.762;2022-07-23T12:08:06;16.38;;;4.22;;
28629;SDS011;15817;42.130;24.762;2022-07-23T12:10:53;12.38;;;3.92;;
28629;SDS011;15817;42.130;24.762;2022-07-23T12:13:20;13.55;;;4.35;;
28629;SDS011;15817;42.130;24.762;2022-07-23T12:16:02;11.95;;;4.50;;
28629;SDS011;15817;42.130;24.762;2022-07-23T12:18:50;11.07;;;3.80;;
28629;SDS011;15817;42.130;24.762;2022-07-23T12:21:18;15.40;;;4.22;;
28629;SDS011;15817;42.130;24.762;2022-07-23T12:24:04;11.57;;;3.95;;
28629;SDS011;15817;42.130;24.762;2022-07-23T12:27:07;9.60;;;3.85;;
28629;SDS011;15817;42.130;24.762;2022-07-23T12:29:58;12.05;;;3.90;;
28629;SDS011;15817;42.130;24.762;2022-07-23T12:33:01;13.68;;;4.10;;
28629;SDS011;15817;42.130;24.762;2022-07-23T12:43:10;12.95;;;4.57;;
28629;SDS011;15817;42.130;24.762;2022-07-23T12:46:16;13.50;;;3.55;;
28629;SDS011;15817;42.130;24.762;2022-07-23T12:51:19;11.77;;;4.40;;
28629;SDS011;15817;42.130;24.762;2022-07-23T12:53:51;14.43;;;4.05;;
28629;SDS011;15817;42.130;24.762;2022-07-23T12:56:27;17.25;;;4.53;;
28629;SDS011;15817;42.130;24.762;2022-07-23T12:59:05;15.30;;;4.35;;
28629;SDS011;15817;42.130;24.762;2022-07-23T13:01:42;11.50;;;4.05;;
28629;SDS011;15817;42.130;24.762;2022-07-23T13:04:14;14.25;;;3.80;;
28629;SDS011;15817;42.130;24.762;2022-07-23T13:06:48;12.98;;;4.05;;
28629;SDS011;15817;42.130;24.762;2022-07-23T13:09:40;8.98;;;3.88;;
28629;SDS011;15817;42.130;24.762;2022-07-23T13:12:07;12.60;;;4.03;;
28629;SDS011;15817;42.130;24.762;2022-07-23T13:14:34;15.25;;;4.38;;
28629;SDS011;15817;42.130;24.762;2022-07-23T13:17:03;9.77;;;3.85;;
28629;SDS011;15817;42.130;24.762;2022-07-23T13:19:49;10.15;;;3.92;;
28629;SDS011;15817;42.130;24.762;2022-07-23T13:26:07;8.65;;;3.72;;
28629;SDS011;15817;42.130;24.762;2022-07-23T13:28:33;11.85;;;3.85;;
28629;SDS011;15817;42.130;24.762;2022-07-23T13:31:04;13.15;;;4.38;;
28629;SDS011;15817;42.130;24.762;2022-07-23T13:33:36;14.90;;;4.10;;
28629;SDS011;15817;42.130;24.762;2022-07-23T13:36:02;12.55;;;3.97;;
28629;SDS011;15817;42.130;24.762;2022-07-23T13:38:34;10.88;;;3.95;;
28629;SDS011;15817;42.130;24.762;2022-07-23T13:41:00;11.52;;;4.15;;
28629;SDS011;15817;42.130;24.762;2022-07-23T13:43:34;12.65;;;4.20;;
28629;SDS011;15817;42.130;24.762;2022-07-23T13:46:02;11.48;;;4.07;;
28629;SDS011;15817;42.130;24.762;2022-07-23T13:48:31;8.95;;;3.42;;
28629;SDS011;15817;42.130;24.762;2022-07-23T13:51:09;9.55;;;3.78;;
28629;SDS011;15817;42.130;24.762;2022-07-23T13:57:16;15.90;;;4.25;;
28629;SDS011;15817;42.130;24.762;2022-07-23T14:00:35;12.00;;;4.07;;
28629;SDS011;15817;42.130;24.762;2022-07-23T14:06:03;10.82;;;3.83;;
28629;SDS011;15817;42.130;24.762;2022-07-23T14:08:33;11.65;;;4.70;;
28629;SDS011;15817;42.130;24.762;2022-07-23T14:11:13;13.27;;;4.65;;
28629;SDS011;15817;42.130;24.762;2022-07-23T14:13:49;13.18;;;4.57;;
28629;SDS011;15817;42.130;24.762;2022-07-23T14:16:23;11.00;;;4.57;;
28629;SDS011;15817;42.130;24.762;2022-07-23T14:18:55;12.85;;;4.32;;
28629;SDS011;15817;42.130;24.762;2022-07-23T14:21:21;12.63;;;4.18;;
28629;SDS011;15817;42.130;24.762;2022-07-23T14:23:55;14.85;;;4.32;;
28629;SDS011;15817;42.130;24.762;2022-07-23T14:26:25;20.40;;;4.80;;
28629;SDS011;15817;42.130;24.762;2022-07-23T14:28:56;17.08;;;4.20;;
28629;SDS011;15817;42.130;24.762;2022-07-23T14:31:34;11.25;;;5.03;;
28629;SDS011;15817;42.130;24.762;2022-07-23T14:34:06;11.00;;;4.20;;
28629;SDS011;15817;42.130;24.762;2022-07-23T14:36:35;16.50;;;7.60;;
28629;SDS011;15817;42.130;24.762;2022-07-23T14:39:05;8.15;;;4.22;;
28629;SDS011;15817;42.130;24.762;2022-07-23T14:41:37;14.40;;;4.75;;
28629;SDS011;15817;42.130;24.762;2022-07-23T14:44:07;13.15;;;4.60;;
28629;SDS011;15817;42.130;24.762;2022-07-23T14:46:45;13.50;;;4.93;;
28629;SDS011;15817;42.130;24.762;2022-07-23T14:49:28;11.70;;;4.05;;
28629;SDS011;15817;42.130;24.762;2022-07-23T14:52:17;11.15;;;3.85;;
28629;SDS011;15817;42.130;24.762;2022-07-23T14:58:20;14.63;;;4.30;;
28629;SDS011;15817;42.130;24.762;2022-07-23T15:00:46;11.00;;;3.78;;
28629;SDS011;15817;42.130;24.762;2022-07-23T15:03:12;7.90;;;3.95;;
28629;SDS011;15817;42.130;24.762;2022-07-23T15:05:46;13.25;;;4.05;;
28629;SDS011;15817;42.130;24.762;2022-07-23T15:08:14;11.30;;;4.40;;
28629;SDS011;15817;42.130;24.762;2022-07-23T15:10:40;15.75;;;4.82;;
28629;SDS011;15817;42.130;24.762;2022-07-23T15:13:08;15.85;;;4.38;;
28629;SDS011;15817;42.130;24.762;2022-07-23T15:15:34;16.52;;;4.25;;
28629;SDS011;15817;42.130;24.762;2022-07-23T15:18:00;13.23;;;4.80;;
28629;SDS011;15817;42.130;24.762;2022-07-23T15:20:26;14.48;;;3.92;;
28629;SDS011;15817;42.130;24.762;2022-07-23T15:22:52;17.35;;;4.10;;
28629;SDS011;15817;42.130;24.762;2022-07-23T15:25:29;12.05;;;3.97;;
28629;SDS011;15817;42.130;24.762;2022-07-23T15:27:56;15.60;;;4.93;;
28629;SDS011;15817;42.130;24.762;2022-07-23T15:30:26;11.25;;;4.10;;
28629;SDS011;15817;42.130;24.762;2022-07-23T15:32:55;11.65;;;4.40;;
28629;SDS011;15817;42.130;24.762;2022-07-23T15:35:26;8.25;;;3.85;;
28629;SDS011;15817;42.130;24.762;2022-07-23T15:37:55;14.70;;;4.82;;
28629;SDS011;15817;42.130;24.762;2022-07-23T15:40:21;11.50;;;4.28;;
28629;SDS011;15817;42.130;24.762;2022-07-23T15:42:51;10.13;;;4.13;;
28629;SDS011;15817;42.130;24.762;2022-07-23T15:45:20;11.88;;;3.95;;
28629;SDS011;15817;42.130;24.762;2022-07-23T15:47:47;9.18;;;4.25;;
28629;SDS011;15817;42.130;24.762;2022-07-23T15:50:31;14.85;;;5.05;;
28629;SDS011;15817;42.130;24.762;2022-07-23T15:53:02;18.60;;;4.40;;
28629;SDS011;15817;42.130;24.762;2022-07-23T15:55:31;16.20;;;4.47;;
28629;SDS011;15817;42.130;24.762;2022-07-23T15:58:11;12.18;;;4.50;;
28629;SDS011;15817;42.130;24.762;2022-07-23T16:00:40;9.70;;;4.50;;
28629;SDS011;15817;42.130;24.762;2022-07-23T16:03:09;12.95;;;4.60;;
28629;SDS011;15817;42.130;24.762;2022-07-23T16:05:36;11.65;;;4.82;;
28629;SDS011;15817;42.130;24.762;2022-07-23T16:11:58;9.35;;;4.25;;
28629;SDS011;15817;42.130;24.762;2022-07-23T16:14:25;13.48;;;3.92;;